sensor_id;sensor_type;location;lat;lon;timestamp;P1;durP1;ratioP1;P2;durP2;ratioP2
23099;SDS011;53791;50.696;4.396;2023-02-21T00:00:55;6.58;;;5.97;;
23099;SDS011;53791;50.696;4.396;2023-02-21T00:03:40;5.95;;;4.70;;
23099;SDS011;53791;50.696;4.396;2023-02-21T00:06:26;3.90;;;3.55;;
23099;SDS011;53791;50.696;4.396;2023-02-21T00:09:11;4.53;;;4.17;;
23099;SDS011;53791;50.696;4.396;2023-02-21T00:11:57;3.98;;;3.67;;
23099;SDS011;53791;50.696;4.396;2023-02-21T00:14:42;5.15;;;4.33;;
23099;SDS011;53791;50.696;4.396;2023-02-21T00:17:28;4.50;;;4.03;;
23099;SDS011;53791;50.696;4.396;2023-02-21T00:20:13;3.72;;;3.42;;
23099;SDS011;53791;50.696;4.396;2023-02-21T00:22:59;5.15;;;4.20;;
23099;SDS011;53791;50.696;4.396;2023-02-21T00:25:44;4.75;;;4.10;;
23099;SDS011;53791;50.696;4.396;2023-02-21T00:28:31;4.10;;;3.75;;
23099;SDS011;53791;50.696;4.396;2023-02-21T00:31:17;4.12;;;3.77;;
23099;SDS011;53791;50.696;4.396;2023-02-21T00:34:03;4.47;;;4.08;;
23099;SDS011;53791;50.696;4.396;2023-02-21T00:36:49;5.62;;;4.87;;
23099;SDS011;53791;50.696;4.396;2023-02-21T00:39:36;11.75;;;4.75;;
23099;SDS011;53791;50.696;4.396;2023-02-21T00:42:21;5.85;;;5.10;;
23099;SDS011;53791;50.696;4.396;2023-02-21T00:45:07;4.08;;;3.70;;
23099;SDS011;53791;50.696;4.396;2023-02-21T00:47:52;4.25;;;3.95;;
23099;SDS011;53791;50.696;4.396;2023-02-21T00:50:39;4.33;;;3.92;;
23099;SDS011;53791;50.696;4.396;2023-02-21T00:53:25;4.90;;;4.42;;
23099;SDS011;53791;50.696;4.396;2023-02-21T00:56:10;4.58;;;3.92;;
23099;SDS011;53791;50.696;4.396;2023-02-21T00:58:55;5.58;;;4.12;;
23099;SDS011;53791;50.696;4.396;2023-02-21T01:01:41;4.65;;;4.22;;
23099;SDS011;53791;50.696;4.396;2023-02-21T01:04:27;4.65;;;3.85;;
23099;SDS011;53791;50.696;4.396;2023-02-21T01:07:12;4.42;;;4.03;;
23099;SDS011;53791;50.696;4.396;2023-02-21T01:09:58;4.95;;;4.12;;
23099;SDS011;53791;50.696;4.396;2023-02-21T01:12:43;4.75;;;3.62;;
23099;SDS011;53791;50.696;4.396;2023-02-21T01:15:29;4.30;;;3.90;;
23099;SDS011;53791;50.696;4.396;2023-02-21T01:18:14;3.92;;;3.52;;
23099;SDS011;53791;50.696;4.396;2023-02-21T01:21:00;3.95;;;3.55;;
23099;SDS011;53791;50.696;4.396;2023-02-21T01:23:45;4.35;;;3.98;;
23099;SDS011;53791;50.696;4.396;2023-02-21T01:26:31;4.28;;;3.95;;
23099;SDS011;53791;50.696;4.396;2023-02-21T01:29:16;4.03;;;3.72;;
23099;SDS011;53791;50.696;4.396;2023-02-21T01:32:02;5.53;;;4.35;;
23099;SDS011;53791;50.696;4.396;2023-02-21T01:34:47;4.15;;;3.85;;
23099;SDS011;53791;50.696;4.396;2023-02-21T01:37:32;5.35;;;4.83;;
23099;SDS011;53791;50.696;4.396;2023-02-21T01:40:18;4.75;;;4.33;;
23099;SDS011;53791;50.696;4.396;2023-02-21T01:43:17;4.70;;;4.30;;
23099;SDS011;53791;50.696;4.396;2023-02-21T01:46:04;4.22;;;3.92;;
23099;SDS011;53791;50.696;4.396;2023-02-21T01:48:52;4.10;;;3.80;;
23099;SDS011;53791;50.696;4.396;2023-02-21T01:51:39;5.72;;;4.10;;
23099;SDS011;53791;50.696;4.396;2023-02-21T01:54:27;3.72;;;3.42;;
23099;SDS011;53791;50.696;4.396;2023-02-21T01:57:14;4.78;;;4.37;;
23099;SDS011;53791;50.696;4.396;2023-02-21T02:00:00;4.80;;;4.33;;
23099;SDS011;53791;50.696;4.396;2023-02-21T02:02:56;4.00;;;3.70;;
23099;SDS011;53791;50.696;4.396;2023-02-21T02:05:51;5.05;;;4.65;;
23099;SDS011;53791;50.696;4.396;2023-02-21T02:08:43;5.00;;;4.58;;
23099;SDS011;53791;50.696;4.396;2023-02-21T02:12:01;6.55;;;4.87;;
23099;SDS011;53791;50.696;4.396;2023-02-21T02:17:48;5.20;;;4.70;;
23099;SDS011;53791;50.696;4.396;2023-02-21T02:20:53;5.15;;;4.10;;
23099;SDS011;53791;50.696;4.396;2023-02-21T02:26:49;4.87;;;4.47;;
23099;SDS011;53791;50.696;4.396;2023-02-21T02:32:23;5.97;;;5.37;;
23099;SDS011;53791;50.696;4.396;2023-02-21T02:45:53;5.58;;;5.08;;
23099;SDS011;53791;50.696;4.396;2023-02-21T02:48:30;5.20;;;4.80;;
23099;SDS011;53791;50.696;4.396;2023-02-21T02:51:07;5.55;;;4.62;;
23099;SDS011;53791;50.696;4.396;2023-02-21T02:53:37;5.55;;;5.10;;
23099;SDS011;53791;50.696;4.396;2023-02-21T02:56:05;5.97;;;5.05;;
23099;SDS011;53791;50.696;4.396;2023-02-21T02:58:44;5.42;;;5.03;;
23099;SDS011;53791;50.696;4.396;2023-02-21T03:07:06;4.90;;;4.47;;
23099;SDS011;53791;50.696;4.396;2023-02-21T03:09:55;5.97;;;5.47;;
23099;SDS011;53791;50.696;4.396;2023-02-21T03:12:43;6.25;;;5.75;;
23099;SDS011;53791;50.696;4.396;2023-02-21T03:20:45;5.72;;;4.80;;
23099;SDS011;53791;50.696;4.396;2023-02-21T03:23:13;5.95;;;5.45;;
23099;SDS011;53791;50.696;4.396;2023-02-21T03:25:43;12.85;;;5.08;;
23099;SDS011;53791;50.696;4.396;2023-02-21T03:28:13;5.00;;;4.60;;
23099;SDS011;53791;50.696;4.396;2023-02-21T03:30:41;6.15;;;5.65;;
23099;SDS011;53791;50.696;4.396;2023-02-21T03:33:10;5.83;;;5.10;;
23099;SDS011;53791;50.696;4.396;2023-02-21T03:35:38;5.17;;;4.78;;
23099;SDS011;53791;50.696;4.396;2023-02-21T03:38:05;5.92;;;5.45;;
23099;SDS011;53791;50.696;4.396;2023-02-21T03:40:33;5.67;;;5.15;;
23099;SDS011;53791;50.696;4.396;2023-02-21T03:43:03;6.20;;;5.72;;
23099;SDS011;53791;50.696;4.396;2023-02-21T03:45:33;6.12;;;5.53;;
23099;SDS011;53791;50.696;4.396;2023-02-21T03:48:01;5.87;;;5.37;;
23099;SDS011;53791;50.696;4.396;2023-02-21T03:50:29;5.87;;;5.30;;
23099;SDS011;53791;50.696;4.396;2023-02-21T03:52:57;6.28;;;5.78;;
23099;SDS011;53791;50.696;4.396;2023-02-21T03:55:24;5.55;;;5.15;;
23099;SDS011;53791;50.696;4.396;2023-02-21T03:57:52;5.87;;;5.47;;
23099;SDS011;53791;50.696;4.396;2023-02-21T04:00:19;6.50;;;5.97;;
23099;SDS011;53791;50.696;4.396;2023-02-21T04:02:47;5.62;;;5.17;;
23099;SDS011;53791;50.696;4.396;2023-02-21T04:05:14;16.12;;;7.28;;
23099;SDS011;53791;50.696;4.396;2023-02-21T04:07:42;5.55;;;5.15;;
23099;SDS011;53791;50.696;4.396;2023-02-21T04:10:09;6.08;;;5.58;;
23099;SDS011;53791;50.696;4.396;2023-02-21T04:12:37;5.90;;;5.40;;
23099;SDS011;53791;50.696;4.396;2023-02-21T04:15:05;7.08;;;6.28;;
23099;SDS011;53791;50.696;4.396;2023-02-21T04:17:32;7.20;;;6.60;;
23099;SDS011;53791;50.696;4.396;2023-02-21T04:20:00;6.30;;;5.85;;
23099;SDS011;53791;50.696;4.396;2023-02-21T04:22:28;7.30;;;6.60;;
23099;SDS011;53791;50.696;4.396;2023-02-21T04:24:55;8.33;;;6.83;;
23099;SDS011;53791;50.696;4.396;2023-02-21T04:27:22;9.05;;;6.87;;
23099;SDS011;53791;50.696;4.396;2023-02-21T04:29:51;6.65;;;6.15;;
23099;SDS011;53791;50.696;4.396;2023-02-21T04:32:19;7.90;;;7.30;;
23099;SDS011;53791;50.696;4.396;2023-02-21T04:34:46;6.75;;;6.25;;
23099;SDS011;53791;50.696;4.396;2023-02-21T04:37:14;7.25;;;6.65;;
23099;SDS011;53791;50.696;4.396;2023-02-21T04:39:41;6.97;;;6.28;;
23099;SDS011;53791;50.696;4.396;2023-02-21T04:42:10;6.08;;;5.60;;
23099;SDS011;53791;50.696;4.396;2023-02-21T04:44:37;7.45;;;6.30;;
23099;SDS011;53791;50.696;4.396;2023-02-21T04:47:05;6.45;;;5.95;;
23099;SDS011;53791;50.696;4.396;2023-02-21T04:49:32;6.85;;;6.35;;
23099;SDS011;53791;50.696;4.396;2023-02-21T04:52:00;8.65;;;7.62;;
23099;SDS011;53791;50.696;4.396;2023-02-21T04:54:27;7.05;;;6.50;;
23099;SDS011;53791;50.696;4.396;2023-02-21T04:56:55;5.83;;;5.42;;
23099;SDS011;53791;50.696;4.396;2023-02-21T04:59:22;6.17;;;5.78;;
23099;SDS011;53791;50.696;4.396;2023-02-21T05:01:50;6.67;;;6.17;;
23099;SDS011;53791;50.696;4.396;2023-02-21T05:04:18;6.75;;;6.20;;
23099;SDS011;53791;50.696;4.396;2023-02-21T05:06:45;6.37;;;5.87;;
23099;SDS011;53791;50.696;4.396;2023-02-21T05:09:12;6.25;;;5.85;;
23099;SDS011;53791;50.696;4.396;2023-02-21T05:11:40;6.22;;;5.83;;
23099;SDS011;53791;50.696;4.396;2023-02-21T05:14:08;5.65;;;5.22;;
23099;SDS011;53791;50.696;4.396;2023-02-21T05:16:35;6.28;;;5.80;;
23099;SDS011;53791;50.696;4.396;2023-02-21T05:19:03;6.75;;;6.25;;
23099;SDS011;53791;50.696;4.396;2023-02-21T05:21:33;6.85;;;6.33;;
23099;SDS011;53791;50.696;4.396;2023-02-21T05:24:02;6.70;;;6.20;;
23099;SDS011;53791;50.696;4.396;2023-02-21T05:26:35;8.43;;;6.47;;
23099;SDS011;53791;50.696;4.396;2023-02-21T05:29:03;6.75;;;6.25;;
23099;SDS011;53791;50.696;4.396;2023-02-21T05:31:31;6.33;;;5.90;;
23099;SDS011;53791;50.696;4.396;2023-02-21T05:33:58;6.20;;;5.70;;
23099;SDS011;53791;50.696;4.396;2023-02-21T05:36:26;6.72;;;6.12;;
23099;SDS011;53791;50.696;4.396;2023-02-21T05:38:54;6.37;;;5.90;;
23099;SDS011;53791;50.696;4.396;2023-02-21T05:41:21;5.70;;;5.30;;
23099;SDS011;53791;50.696;4.396;2023-02-21T05:43:50;6.40;;;5.90;;
23099;SDS011;53791;50.696;4.396;2023-02-21T05:46:25;5.80;;;5.37;;
23099;SDS011;53791;50.696;4.396;2023-02-21T05:48:58;5.70;;;5.30;;
23099;SDS011;53791;50.696;4.396;2023-02-21T05:51:30;5.90;;;5.50;;
23099;SDS011;53791;50.696;4.396;2023-02-21T05:54:05;5.50;;;5.10;;
23099;SDS011;53791;50.696;4.396;2023-02-21T05:56:37;5.58;;;5.17;;
23099;SDS011;53791;50.696;4.396;2023-02-21T05:59:05;5.65;;;5.25;;
23099;SDS011;53791;50.696;4.396;2023-02-21T06:01:34;6.17;;;5.70;;
23099;SDS011;53791;50.696;4.396;2023-02-21T06:04:01;6.05;;;5.65;;
23099;SDS011;53791;50.696;4.396;2023-02-21T06:06:29;6.62;;;6.12;;
23099;SDS011;53791;50.696;4.396;2023-02-21T06:08:57;6.83;;;6.15;;
23099;SDS011;53791;50.696;4.396;2023-02-21T06:11:32;6.62;;;6.10;;
23099;SDS011;53791;50.696;4.396;2023-02-21T06:13:57;5.72;;;5.33;;
23099;SDS011;53791;50.696;4.396;2023-02-21T06:16:25;5.97;;;5.40;;
23099;SDS011;53791;50.696;4.396;2023-02-21T06:18:54;5.85;;;5.45;;
23099;SDS011;53791;50.696;4.396;2023-02-21T06:21:22;7.03;;;6.30;;
23099;SDS011;53791;50.696;4.396;2023-02-21T06:23:50;6.58;;;5.95;;
23099;SDS011;53791;50.696;4.396;2023-02-21T06:26:18;6.10;;;5.53;;
23099;SDS011;53791;50.696;4.396;2023-02-21T06:28:46;6.92;;;6.20;;
23099;SDS011;53791;50.696;4.396;2023-02-21T06:31:13;6.20;;;5.70;;
23099;SDS011;53791;50.696;4.396;2023-02-21T06:33:42;6.33;;;5.72;;
23099;SDS011;53791;50.696;4.396;2023-02-21T06:36:16;6.03;;;5.62;;
23099;SDS011;53791;50.696;4.396;2023-02-21T06:38:42;6.03;;;5.60;;
23099;SDS011;53791;50.696;4.396;2023-02-21T06:41:13;5.62;;;5.22;;
23099;SDS011;53791;50.696;4.396;2023-02-21T06:43:43;6.95;;;6.42;;
23099;SDS011;53791;50.696;4.396;2023-02-21T06:46:15;6.42;;;5.92;;
23099;SDS011;53791;50.696;4.396;2023-02-21T06:48:44;6.28;;;5.67;;
23099;SDS011;53791;50.696;4.396;2023-02-21T06:51:11;6.92;;;6.08;;
23099;SDS011;53791;50.696;4.396;2023-02-21T06:53:40;6.70;;;6.17;;
23099;SDS011;53791;50.696;4.396;2023-02-21T06:56:08;6.35;;;5.85;;
23099;SDS011;53791;50.696;4.396;2023-02-21T06:58:36;6.25;;;5.65;;
23099;SDS011;53791;50.696;4.396;2023-02-21T07:01:03;6.33;;;5.83;;
23099;SDS011;53791;50.696;4.396;2023-02-21T07:03:31;5.80;;;5.40;;
23099;SDS011;53791;50.696;4.396;2023-02-21T07:06:00;6.87;;;6.28;;
23099;SDS011;53791;50.696;4.396;2023-02-21T07:08:27;6.10;;;5.60;;
23099;SDS011;53791;50.696;4.396;2023-02-21T07:10:55;6.97;;;6.33;;
23099;SDS011;53791;50.696;4.396;2023-02-21T07:13:22;6.50;;;5.90;;
23099;SDS011;53791;50.696;4.396;2023-02-21T07:15:50;5.75;;;5.35;;
23099;SDS011;53791;50.696;4.396;2023-02-21T07:18:19;5.95;;;5.55;;
23099;SDS011;53791;50.696;4.396;2023-02-21T07:20:46;5.65;;;5.25;;
23099;SDS011;53791;50.696;4.396;2023-02-21T07:23:14;6.25;;;5.65;;
23099;SDS011;53791;50.696;4.396;2023-02-21T07:25:43;6.33;;;5.83;;
23099;SDS011;53791;50.696;4.396;2023-02-21T07:28:11;5.70;;;5.30;;
23099;SDS011;53791;50.696;4.396;2023-02-21T07:30:38;6.05;;;5.50;;
23099;SDS011;53791;50.696;4.396;2023-02-21T07:33:06;5.00;;;4.60;;
23099;SDS011;53791;50.696;4.396;2023-02-21T07:35:33;5.25;;;4.85;;
23099;SDS011;53791;50.696;4.396;2023-02-21T07:38:01;5.83;;;5.42;;
23099;SDS011;53791;50.696;4.396;2023-02-21T07:40:29;5.70;;;5.05;;
23099;SDS011;53791;50.696;4.396;2023-02-21T07:42:56;6.75;;;6.12;;
23099;SDS011;53791;50.696;4.396;2023-02-21T07:45:24;6.17;;;5.67;;
23099;SDS011;53791;50.696;4.396;2023-02-21T07:47:51;7.65;;;6.60;;
23099;SDS011;53791;50.696;4.396;2023-02-21T07:50:19;5.72;;;5.33;;
23099;SDS011;53791;50.696;4.396;2023-02-21T07:52:48;6.95;;;6.33;;
23099;SDS011;53791;50.696;4.396;2023-02-21T07:55:15;8.23;;;6.12;;
23099;SDS011;53791;50.696;4.396;2023-02-21T07:57:43;9.60;;;6.92;;
23099;SDS011;53791;50.696;4.396;2023-02-21T08:00:12;8.23;;;7.28;;
23099;SDS011;53791;50.696;4.396;2023-02-21T08:02:40;6.97;;;6.37;;
23099;SDS011;53791;50.696;4.396;2023-02-21T08:05:11;9.30;;;7.60;;
23099;SDS011;53791;50.696;4.396;2023-02-21T08:07:38;23.47;;;8.55;;
23099;SDS011;53791;50.696;4.396;2023-02-21T08:10:06;11.33;;;9.30;;
23099;SDS011;53791;50.696;4.396;2023-02-21T08:12:34;12.00;;;7.85;;
23099;SDS011;53791;50.696;4.396;2023-02-21T08:15:01;7.78;;;6.95;;
23099;SDS011;53791;50.696;4.396;2023-02-21T08:17:30;12.37;;;8.28;;
23099;SDS011;53791;50.696;4.396;2023-02-21T08:19:58;7.67;;;7.00;;
23099;SDS011;53791;50.696;4.396;2023-02-21T08:22:26;10.32;;;6.92;;
23099;SDS011;53791;50.696;4.396;2023-02-21T08:24:55;8.90;;;8.10;;
23099;SDS011;53791;50.696;4.396;2023-02-21T08:27:22;10.90;;;8.43;;
23099;SDS011;53791;50.696;4.396;2023-02-21T08:29:50;15.38;;;9.18;;
23099;SDS011;53791;50.696;4.396;2023-02-21T08:32:18;10.30;;;8.90;;
23099;SDS011;53791;50.696;4.396;2023-02-21T08:34:46;10.43;;;9.40;;
23099;SDS011;53791;50.696;4.396;2023-02-21T08:37:15;9.43;;;8.48;;
23099;SDS011;53791;50.696;4.396;2023-02-21T08:39:45;9.10;;;8.20;;
23099;SDS011;53791;50.696;4.396;2023-02-21T08:42:13;9.68;;;8.65;;
23099;SDS011;53791;50.696;4.396;2023-02-21T08:44:44;12.95;;;8.68;;
23099;SDS011;53791;50.696;4.396;2023-02-21T08:47:13;13.35;;;9.90;;
23099;SDS011;53791;50.696;4.396;2023-02-21T08:49:45;12.90;;;9.85;;
23099;SDS011;53791;50.696;4.396;2023-02-21T08:52:14;13.98;;;9.35;;
23099;SDS011;53791;50.696;4.396;2023-02-21T08:54:42;9.20;;;8.30;;
23099;SDS011;53791;50.696;4.396;2023-02-21T08:57:11;8.68;;;7.87;;
23099;SDS011;53791;50.696;4.396;2023-02-21T08:59:39;14.75;;;9.35;;
23099;SDS011;53791;50.696;4.396;2023-02-21T09:02:14;16.27;;;8.98;;
23099;SDS011;53791;50.696;4.396;2023-02-21T09:04:46;13.10;;;8.33;;
23099;SDS011;53791;50.696;4.396;2023-02-21T09:07:15;19.48;;;10.43;;
23099;SDS011;53791;50.696;4.396;2023-02-21T09:09:44;28.20;;;9.53;;
23099;SDS011;53791;50.696;4.396;2023-02-21T09:12:11;14.40;;;9.98;;
23099;SDS011;53791;50.696;4.396;2023-02-21T09:14:39;9.95;;;8.05;;
23099;SDS011;53791;50.696;4.396;2023-02-21T09:17:10;8.33;;;7.62;;
23099;SDS011;53791;50.696;4.396;2023-02-21T09:19:38;10.60;;;8.13;;
23099;SDS011;53791;50.696;4.396;2023-02-21T09:22:08;11.03;;;8.83;;
23099;SDS011;53791;50.696;4.396;2023-02-21T09:24:36;8.40;;;7.62;;
23099;SDS011;53791;50.696;4.396;2023-02-21T09:27:04;11.78;;;9.50;;
23099;SDS011;53791;50.696;4.396;2023-02-21T09:29:32;8.35;;;7.45;;
23099;SDS011;53791;50.696;4.396;2023-02-21T09:32:01;9.08;;;8.03;;
23099;SDS011;53791;50.696;4.396;2023-02-21T09:37:17;10.82;;;8.05;;
23099;SDS011;53791;50.696;4.396;2023-02-21T09:39:44;12.07;;;7.00;;
23099;SDS011;53791;50.696;4.396;2023-02-21T09:42:17;14.83;;;8.20;;
23099;SDS011;53791;50.696;4.396;2023-02-21T09:44:43;12.88;;;7.53;;
23099;SDS011;53791;50.696;4.396;2023-02-21T09:47:21;10.72;;;7.92;;
23099;SDS011;53791;50.696;4.396;2023-02-21T09:49:45;11.28;;;7.40;;
23099;SDS011;53791;50.696;4.396;2023-02-21T09:52:19;10.10;;;5.30;;
23099;SDS011;53791;50.696;4.396;2023-02-21T09:55:19;6.72;;;6.05;;
23099;SDS011;53791;50.696;4.396;2023-02-21T09:57:52;8.90;;;7.40;;
23099;SDS011;53791;50.696;4.396;2023-02-21T10:00:21;8.70;;;7.58;;
23099;SDS011;53791;50.696;4.396;2023-02-21T10:02:53;13.08;;;8.05;;
23099;SDS011;53791;50.696;4.396;2023-02-21T10:05:43;7.45;;;6.55;;
23099;SDS011;53791;50.696;4.396;2023-02-21T10:08:18;5.53;;;5.03;;
23099;SDS011;53791;50.696;4.396;2023-02-21T10:10:51;6.87;;;5.75;;
23099;SDS011;53791;50.696;4.396;2023-02-21T10:13:33;6.58;;;5.97;;
23099;SDS011;53791;50.696;4.396;2023-02-21T10:16:13;6.58;;;5.90;;
23099;SDS011;53791;50.696;4.396;2023-02-21T10:18:44;9.78;;;6.33;;
23099;SDS011;53791;50.696;4.396;2023-02-21T10:21:24;9.28;;;7.00;;
23099;SDS011;53791;50.696;4.396;2023-02-21T10:23:52;12.47;;;6.62;;
23099;SDS011;53791;50.696;4.396;2023-02-21T10:26:28;6.55;;;4.90;;
23099;SDS011;53791;50.696;4.396;2023-02-21T10:28:53;9.28;;;6.20;;
23099;SDS011;53791;50.696;4.396;2023-02-21T10:31:32;7.85;;;6.35;;
23099;SDS011;53791;50.696;4.396;2023-02-21T10:34:04;14.13;;;7.90;;
23099;SDS011;53791;50.696;4.396;2023-02-21T10:36:33;7.75;;;6.08;;
23099;SDS011;53791;50.696;4.396;2023-02-21T10:39:16;8.88;;;7.83;;
23099;SDS011;53791;50.696;4.396;2023-02-21T10:41:40;7.83;;;6.50;;
23099;SDS011;53791;50.696;4.396;2023-02-21T10:46:54;10.93;;;7.97;;
23099;SDS011;53791;50.696;4.396;2023-02-21T10:49:24;9.03;;;7.70;;
23099;SDS011;53791;50.696;4.396;2023-02-21T10:52:05;6.55;;;6.05;;
23099;SDS011;53791;50.696;4.396;2023-02-21T10:54:37;6.28;;;5.78;;
23099;SDS011;53791;50.696;4.396;2023-02-21T10:57:06;7.33;;;6.53;;
23099;SDS011;53791;50.696;4.396;2023-02-21T10:59:37;8.00;;;7.28;;
23099;SDS011;53791;50.696;4.396;2023-02-21T11:02:27;9.83;;;8.80;;
23099;SDS011;53791;50.696;4.396;2023-02-21T11:04:55;10.63;;;7.53;;
23099;SDS011;53791;50.696;4.396;2023-02-21T11:07:34;9.15;;;8.05;;
23099;SDS011;53791;50.696;4.396;2023-02-21T11:10:03;8.08;;;7.17;;
23099;SDS011;53791;50.696;4.396;2023-02-21T11:12:35;7.83;;;6.92;;
23099;SDS011;53791;50.696;4.396;2023-02-21T11:15:14;9.63;;;8.25;;
23099;SDS011;53791;50.696;4.396;2023-02-21T11:17:42;12.40;;;7.67;;
23099;SDS011;53791;50.696;4.396;2023-02-21T11:20:18;9.15;;;8.23;;
23099;SDS011;53791;50.696;4.396;2023-02-21T11:22:48;11.53;;;7.30;;
23099;SDS011;53791;50.696;4.396;2023-02-21T11:25:26;7.78;;;7.03;;
23099;SDS011;53791;50.696;4.396;2023-02-21T11:30:39;10.75;;;8.70;;
23099;SDS011;53791;50.696;4.396;2023-02-21T11:33:04;10.20;;;8.68;;
23099;SDS011;53791;50.696;4.396;2023-02-21T11:35:34;11.00;;;9.15;;
23099;SDS011;53791;50.696;4.396;2023-02-21T11:38:05;9.75;;;8.88;;
23099;SDS011;53791;50.696;4.396;2023-02-21T11:40:42;13.80;;;11.38;;
23099;SDS011;53791;50.696;4.396;2023-02-21T11:45:51;11.18;;;8.75;;
23099;SDS011;53791;50.696;4.396;2023-02-21T11:48:32;19.23;;;12.20;;
23099;SDS011;53791;50.696;4.396;2023-02-21T11:51:05;15.15;;;11.70;;
23099;SDS011;53791;50.696;4.396;2023-02-21T11:53:41;18.32;;;10.90;;
23099;SDS011;53791;50.696;4.396;2023-02-21T11:59:12;8.93;;;8.13;;
23099;SDS011;53791;50.696;4.396;2023-02-21T12:01:41;10.75;;;8.63;;
23099;SDS011;53791;50.696;4.396;2023-02-21T12:07:19;12.60;;;8.03;;
23099;SDS011;53791;50.696;4.396;2023-02-21T12:23:36;14.03;;;10.10;;
23099;SDS011;53791;50.696;4.396;2023-02-21T12:26:20;13.03;;;10.82;;
23099;SDS011;53791;50.696;4.396;2023-02-21T12:28:59;8.88;;;8.08;;
23099;SDS011;53791;50.696;4.396;2023-02-21T12:34:14;11.75;;;9.28;;
23099;SDS011;53791;50.696;4.396;2023-02-21T12:36:45;11.08;;;9.95;;
23099;SDS011;53791;50.696;4.396;2023-02-21T12:39:20;14.95;;;10.03;;
23099;SDS011;53791;50.696;4.396;2023-02-21T12:44:40;10.18;;;8.85;;
23099;SDS011;53791;50.696;4.396;2023-02-21T12:47:10;13.20;;;10.23;;
23099;SDS011;53791;50.696;4.396;2023-02-21T12:52:14;12.00;;;10.63;;
23099;SDS011;53791;50.696;4.396;2023-02-21T12:54:58;23.07;;;15.85;;
23099;SDS011;53791;50.696;4.396;2023-02-21T13:00:27;11.95;;;10.75;;
23099;SDS011;53791;50.696;4.396;2023-02-21T13:03:09;18.95;;;11.22;;
23099;SDS011;53791;50.696;4.396;2023-02-21T13:05:57;10.95;;;9.58;;
23099;SDS011;53791;50.696;4.396;2023-02-21T13:11:41;10.68;;;9.63;;
23099;SDS011;53791;50.696;4.396;2023-02-21T13:14:24;16.23;;;11.45;;
23099;SDS011;53791;50.696;4.396;2023-02-21T13:16:51;13.88;;;12.05;;
23099;SDS011;53791;50.696;4.396;2023-02-21T13:19:18;13.70;;;11.57;;
23099;SDS011;53791;50.696;4.396;2023-02-21T13:22:01;10.80;;;9.80;;
23099;SDS011;53791;50.696;4.396;2023-02-21T13:27:06;12.05;;;10.03;;
23099;SDS011;53791;50.696;4.396;2023-02-21T13:29:31;13.78;;;12.35;;
23099;SDS011;53791;50.696;4.396;2023-02-21T13:32:16;12.78;;;11.30;;
23099;SDS011;53791;50.696;4.396;2023-02-21T13:34:52;11.95;;;10.63;;
23099;SDS011;53791;50.696;4.396;2023-02-21T13:37:22;13.15;;;10.03;;
23099;SDS011;53791;50.696;4.396;2023-02-21T13:39:56;13.10;;;11.80;;
23099;SDS011;53791;50.696;4.396;2023-02-21T13:42:24;18.87;;;11.78;;
23099;SDS011;53791;50.696;4.396;2023-02-21T13:45:08;14.55;;;11.75;;
23099;SDS011;53791;50.696;4.396;2023-02-21T13:50:44;12.70;;;10.50;;
23099;SDS011;53791;50.696;4.396;2023-02-21T13:55:38;13.15;;;11.83;;
23099;SDS011;53791;50.696;4.396;2023-02-21T14:08:24;17.48;;;12.03;;
23099;SDS011;53791;50.696;4.396;2023-02-21T14:10:57;15.50;;;11.10;;
23099;SDS011;53791;50.696;4.396;2023-02-21T14:13:34;12.23;;;10.98;;
23099;SDS011;53791;50.696;4.396;2023-02-21T14:21:39;14.60;;;11.88;;
23099;SDS011;53791;50.696;4.396;2023-02-21T14:26:44;14.63;;;10.85;;
23099;SDS011;53791;50.696;4.396;2023-02-21T14:29:14;12.35;;;10.60;;
23099;SDS011;53791;50.696;4.396;2023-02-21T14:34:51;14.53;;;11.78;;
23099;SDS011;53791;50.696;4.396;2023-02-21T14:37:23;11.35;;;10.15;;
23099;SDS011;53791;50.696;4.396;2023-02-21T14:39:59;15.70;;;13.28;;
23099;SDS011;53791;50.696;4.396;2023-02-21T14:45:22;15.23;;;11.38;;
23099;SDS011;53791;50.696;4.396;2023-02-21T14:53:31;13.03;;;10.38;;
23099;SDS011;53791;50.696;4.396;2023-02-21T15:02:14;12.00;;;10.80;;
23099;SDS011;53791;50.696;4.396;2023-02-21T15:07:44;12.75;;;9.70;;
23099;SDS011;53791;50.696;4.396;2023-02-21T15:10:20;17.00;;;11.53;;
23099;SDS011;53791;50.696;4.396;2023-02-21T15:12:47;23.50;;;13.88;;
23099;SDS011;53791;50.696;4.396;2023-02-21T15:15:21;13.95;;;11.33;;
23099;SDS011;53791;50.696;4.396;2023-02-21T15:18:00;15.20;;;10.28;;
23099;SDS011;53791;50.696;4.396;2023-02-21T15:20:29;15.50;;;12.98;;
23099;SDS011;53791;50.696;4.396;2023-02-21T15:23:14;12.98;;;9.53;;
23099;SDS011;53791;50.696;4.396;2023-02-21T15:25:42;12.63;;;11.05;;
23099;SDS011;53791;50.696;4.396;2023-02-21T15:28:21;11.70;;;10.63;;
23099;SDS011;53791;50.696;4.396;2023-02-21T15:30:57;9.65;;;8.48;;
23099;SDS011;53791;50.696;4.396;2023-02-21T15:33:27;10.00;;;9.03;;
23099;SDS011;53791;50.696;4.396;2023-02-21T15:35:59;9.80;;;8.80;;
23099;SDS011;53791;50.696;4.396;2023-02-21T15:38:36;9.98;;;8.88;;
23099;SDS011;53791;50.696;4.396;2023-02-21T15:43:46;11.35;;;10.28;;
23099;SDS011;53791;50.696;4.396;2023-02-21T15:46:16;31.37;;;11.73;;
23099;SDS011;53791;50.696;4.396;2023-02-21T15:48:47;15.28;;;11.08;;
23099;SDS011;53791;50.696;4.396;2023-02-21T15:51:16;10.93;;;9.88;;
23099;SDS011;53791;50.696;4.396;2023-02-21T15:54:06;12.33;;;11.10;;
23099;SDS011;53791;50.696;4.396;2023-02-21T15:56:30;16.48;;;12.68;;
23099;SDS011;53791;50.696;4.396;2023-02-21T15:59:08;16.67;;;10.58;;
23099;SDS011;53791;50.696;4.396;2023-02-21T16:01:37;13.15;;;11.85;;
23099;SDS011;53791;50.696;4.396;2023-02-21T16:04:16;11.08;;;9.93;;
23099;SDS011;53791;50.696;4.396;2023-02-21T16:06:53;18.65;;;11.48;;
23099;SDS011;53791;50.696;4.396;2023-02-21T16:09:24;13.53;;;10.78;;
23099;SDS011;53791;50.696;4.396;2023-02-21T16:14:43;13.43;;;11.68;;
23099;SDS011;53791;50.696;4.396;2023-02-21T16:19:50;17.70;;;11.73;;
23099;SDS011;53791;50.696;4.396;2023-02-21T16:22:25;10.78;;;9.45;;
23099;SDS011;53791;50.696;4.396;2023-02-21T16:27:46;11.00;;;9.70;;
23099;SDS011;53791;50.696;4.396;2023-02-21T16:30:24;13.72;;;10.63;;
23099;SDS011;53791;50.696;4.396;2023-02-21T16:32:57;14.78;;;12.28;;
23099;SDS011;53791;50.696;4.396;2023-02-21T16:35:26;15.20;;;11.43;;
23099;SDS011;53791;50.696;4.396;2023-02-21T16:37:55;16.45;;;11.93;;
23099;SDS011;53791;50.696;4.396;2023-02-21T16:40:27;11.83;;;10.03;;
23099;SDS011;53791;50.696;4.396;2023-02-21T16:42:59;14.38;;;11.22;;
23099;SDS011;53791;50.696;4.396;2023-02-21T16:45:29;18.90;;;11.00;;
23099;SDS011;53791;50.696;4.396;2023-02-21T16:48:03;12.93;;;11.63;;
23099;SDS011;53791;50.696;4.396;2023-02-21T16:50:28;10.03;;;9.05;;
23099;SDS011;53791;50.696;4.396;2023-02-21T16:52:58;11.35;;;10.35;;
23099;SDS011;53791;50.696;4.396;2023-02-21T16:55:27;12.05;;;10.48;;
23099;SDS011;53791;50.696;4.396;2023-02-21T16:57:56;18.70;;;9.58;;
23099;SDS011;53791;50.696;4.396;2023-02-21T17:00:25;17.67;;;11.22;;
23099;SDS011;53791;50.696;4.396;2023-02-21T17:02:55;11.35;;;10.25;;
23099;SDS011;53791;50.696;4.396;2023-02-21T17:05:22;22.35;;;11.95;;
23099;SDS011;53791;50.696;4.396;2023-02-21T17:07:53;13.05;;;10.23;;
23099;SDS011;53791;50.696;4.396;2023-02-21T17:10:23;11.57;;;10.38;;
23099;SDS011;53791;50.696;4.396;2023-02-21T17:12:50;27.05;;;10.65;;
23099;SDS011;53791;50.696;4.396;2023-02-21T17:15:18;13.22;;;11.95;;
23099;SDS011;53791;50.696;4.396;2023-02-21T17:17:46;11.20;;;10.00;;
23099;SDS011;53791;50.696;4.396;2023-02-21T17:20:15;17.42;;;9.95;;
23099;SDS011;53791;50.696;4.396;2023-02-21T17:22:43;12.00;;;10.72;;
23099;SDS011;53791;50.696;4.396;2023-02-21T17:25:11;12.18;;;10.82;;
23099;SDS011;53791;50.696;4.396;2023-02-21T17:27:40;11.53;;;10.32;;
23099;SDS011;53791;50.696;4.396;2023-02-21T17:30:08;11.38;;;10.28;;